Time;durP1;ratioP1;P1;durP2;ratioP2;P2;SDS_P1;SDS_P2;PMS_P1;PMS_P2;Temp;Humidity;BMP_temperature;BMP_pressure;BME280_temperature;BME280_humidity;BME280_pressure;Samples;Min_cycle;Max_cycle;Signal;HPM_P1;HPM_P2
2022/03/02 03:46:16;;;;;;;42.65;18.60;;;0.80;67.90;;;;;;6253160;22;20023;-79
2022/03/02 03:48:42;;;;;;;34.70;17.00;;;0.80;67.90;;;;;;6291474;22;20015;-78
2022/03/02 03:51:07;;;;;;;35.97;16.73;;;0.80;68.00;;;;;;6291576;22;20011;-79
2022/03/02 03:53:33;;;;;;;37.95;16.73;;;0.80;68.20;;;;;;6240728;22;20015;-78
2022/03/02 03:55:59;;;;;;;35.40;17.75;;;0.80;68.40;;;;;;6265527;22;20333;-78
2022/03/02 03:58:25;;;;;;;37.53;16.95;;;0.70;68.50;;;;;;6317125;22;20299;-78
2022/03/02 04:00:51;;;;;;;35.08;15.88;;;0.80;69.30;;;;;;6265618;22;20003;-78
2022/03/02 04:03:17;;;;;;;36.15;17.40;;;0.70;68.50;;;;;;6265872;22;20210;-79
2022/03/02 04:05:42;;;;;;;41.13;17.13;;;0.70;68.60;;;;;;6265625;22;19999;-77
2022/03/02 04:08:08;;;;;;;41.90;16.65;;;0.70;68.50;;;;;;6291382;22;20180;-78
2022/03/02 04:10:35;;;;;;;37.38;16.63;;;0.70;68.80;;;;;;6265547;22;20011;-78
2022/03/02 04:13:00;;;;;;;36.53;16.00;;;0.70;68.70;;;;;;6291190;22;20011;-77
2022/03/02 04:15:26;;;;;;;41.95;17.48;;;0.70;69.00;;;;;;6316795;22;20011;-78
2022/03/02 04:17:52;;;;;;;42.22;17.02;;;0.70;69.10;;;;;;6265459;22;20014;-78
2022/03/02 04:20:18;;;;;;;37.92;16.17;;;0.70;69.10;;;;;;6239777;22;20035;-78
2022/03/02 04:22:44;;;;;;;35.13;16.00;;;0.70;69.30;;;;;;6265292;22;19991;-77
2022/03/02 04:25:10;;;;;;;33.83;17.08;;;0.70;69.40;;;;;;6291269;22;20320;-79
2022/03/02 04:27:36;;;;;;;35.05;16.50;;;0.70;69.40;;;;;;6290892;22;20271;-78
2022/03/02 04:30:03;;;;;;;41.58;16.63;;;0.70;69.60;;;;;;6265457;22;20026;-78
2022/03/02 04:32:30;;;;;;;36.75;17.60;;;0.70;69.60;;;;;;6316700;22;20188;-78
2022/03/02 04:34:56;;;;;;;35.53;15.88;;;0.60;69.50;;;;;;6290720;22;20011;-79
2022/03/02 04:37:21;;;;;;;32.90;15.52;;;0.60;69.30;;;;;;6290999;22;20298;-78
2022/03/02 04:39:47;;;;;;;33.70;16.25;;;0.70;70.20;;;;;;6316729;22;20011;-78
2022/03/02 04:42:13;;;;;;;35.50;17.92;;;0.60;69.60;;;;;;6316715;22;20030;-78
2022/03/02 04:44:39;;;;;;;54.75;17.65;;;0.60;69.50;;;;;;6240408;22;20316;-78
2022/03/02 04:47:05;;;;;;;37.70;17.00;;;0.60;69.70;;;;;;6317542;22;20198;-78
2022/03/02 04:49:31;;;;;;;35.83;16.45;;;0.60;69.50;;;;;;6290851;22;20072;-77
2022/03/02 04:51:56;;;;;;;38.65;16.60;;;0.60;69.60;;;;;;6290651;22;20073;-78
2022/03/02 04:57:07;;;;;;;36.75;17.70;;;0.50;70.10;;;;;;6272823;22;20015;-79
2022/03/02 04:59:33;;;;;;;40.17;17.50;;;0.50;69.50;;;;;;6290864;22;20062;-78
2022/03/02 05:01:59;;;;;;;40.55;18.45;;;0.50;69.80;;;;;;6316314;22;20060;-78
2022/03/02 05:04:26;;;;;;;38.60;17.27;;;0.50;69.80;;;;;;6316464;22;20014;-78
2022/03/02 05:06:52;;;;;;;;;;;0.40;70.10;;;;;;6291450;22;20003;-77
2022/03/02 05:09:18;;;;;;;33.80;15.77;;;0.40;70.10;;;;;;6265086;22;19910;-78
2022/03/02 05:11:43;;;;;;;36.55;17.20;;;0.40;70.10;;;;;;6290598;22;20022;-77
2022/03/02 05:14:09;;;;;;;35.55;16.00;;;0.50;70.00;;;;;;6290572;22;20007;-79
2022/03/02 05:16:35;;;;;;;42.53;17.05;;;0.40;70.00;;;;;;6264904;22;20076;-78
2022/03/02 05:19:01;;;;;;;38.58;16.35;;;0.40;70.00;;;;;;6239540;22;20033;-78
2022/03/02 05:21:26;;;;;;;43.83;16.73;;;0.40;70.00;;;;;;6290588;22;20026;-78
2022/03/02 05:23:52;;;;;;;31.77;17.45;;;0.40;69.90;;;;;;6290548;22;20064;-79
2022/03/02 05:26:18;;;;;;;34.05;14.98;;;0.40;70.00;;;;;;6290717;22;20346;-78
2022/03/02 05:28:43;;;;;;;33.78;15.65;;;0.40;70.00;;;;;;6290095;22;20334;-78
2022/03/02 05:31:09;;;;;;;38.28;16.25;;;0.40;70.10;;;;;;6264837;22;20072;-78
2022/03/02 05:33:35;;;;;;;42.25;17.67;;;0.40;70.30;;;;;;6264919;22;20052;-79
2022/03/02 05:36:01;;;;;;;39.75;17.80;;;0.40;70.50;;;;;;6239370;22;20019;-77
2022/03/02 05:38:27;;;;;;;42.85;16.58;;;0.40;70.30;;;;;;6290347;22;20003;-77
2022/03/02 05:40:52;;;;;;;34.67;16.10;;;0.40;70.40;;;;;;6264577;22;20306;-78
2022/03/02 05:43:18;;;;;;;36.90;17.00;;;0.40;70.30;;;;;;6290398;22;20045;-78
2022/03/02 05:45:44;;;;;;;39.63;17.02;;;0.50;70.20;;;;;;6289724;22;20015;-79
2022/03/02 05:48:10;;;;;;;37.67;17.50;;;0.40;70.20;;;;;;6289988;22;20370;-79
2022/03/02 05:50:36;;;;;;;28.63;13.73;;;0.50;70.20;;;;;;6264740;22;20014;-78
2022/03/02 05:53:02;;;;;;;36.83;16.73;;;0.50;70.10;;;;;;6264640;22;20053;-79
2022/03/02 05:55:28;;;;;;;42.67;16.80;;;0.50;70.20;;;;;;6315712;22;20011;-78
2022/03/02 05:57:53;;;;;;;44.50;16.73;;;0.50;70.10;;;;;;6239556;22;20082;-79
2022/03/02 06:00:19;;;;;;;34.45;16.55;;;0.50;70.80;;;;;;6239377;22;20007;-78
2022/03/02 06:02:46;;;;;;;39.22;16.48;;;0.50;69.90;;;;;;6290113;22;20003;-78
2022/03/02 06:05:11;;;;;;;31.10;16.50;;;0.60;70.00;;;;;;6290247;22;20018;-78
2022/03/02 06:07:38;;;;;;;43.17;17.15;;;0.60;70.00;;;;;;6315206;22;20027;-78
2022/03/02 06:10:04;;;;;;;36.40;16.15;;;0.60;69.80;;;;;;6289878;22;20307;-79
2022/03/02 06:12:31;;;;;;;45.17;17.00;;;0.70;69.60;;;;;;6315907;22;20237;-79
2022/03/02 06:14:57;;;;;;;;;;;0.70;69.60;;;;;;6290571;22;20030;-79
2022/03/02 06:17:23;;;;;;;36.45;17.52;;;0.70;69.60;;;;;;6289908;22;19895;-79
2022/03/02 06:19:50;;;;;;;40.87;15.63;;;0.70;69.30;;;;;;6289957;22;20017;-77
2022/03/02 06:22:23;;;;;;;41.00;16.83;;;0.80;69.40;;;;;;6290319;22;19999;-78
2022/03/02 06:24:51;;;;;;;48.70;16.42;;;0.80;69.20;;;;;;6316013;22;20011;-79
2022/03/02 06:27:20;;;;;;;40.45;17.60;;;0.90;69.00;;;;;;6289826;22;20014;-79
2022/03/02 06:29:46;;;;;;;38.42;16.70;;;0.90;69.00;;;;;;6264449;22;20011;-78
2022/03/02 06:32:12;;;;;;;42.22;16.90;;;1.00;68.90;;;;;;6289850;22;19996;-78
2022/03/02 06:34:39;;;;;;;38.05;16.15;;;1.10;68.60;;;;;;6289708;22;20011;-79
2022/03/02 06:37:06;;;;;;;30.13;12.40;;;1.20;68.30;;;;;;6289563;22;20011;-78
2022/03/02 06:39:32;;;;;;;37.13;17.52;;;1.20;68.10;;;;;;6264527;22;20027;-79
2022/03/02 06:42:16;;;;;;;39.47;16.58;;;1.20;68.00;;;;;;6290141;22;20303;-78
2022/03/02 06:44:55;;;;;;;34.50;16.80;;;1.30;67.80;;;;;;6289414;22;20023;-79
2022/03/02 06:47:29;;;;;;;41.65;17.00;;;1.30;67.20;;;;;;6314546;22;20008;-79
2022/03/02 06:49:54;;;;;;;38.47;15.43;;;1.30;67.00;;;;;;6288920;22;20307;-79
2022/03/02 06:52:21;;;;;;;42.38;15.23;;;1.40;67.00;;;;;;6288680;22;19994;-79
2022/03/02 06:54:50;;;;;;;33.43;15.10;;;1.50;66.70;;;;;;6263245;22;20007;-79
2022/03/02 06:57:18;;;;;;;32.70;15.80;;;1.50;66.50;;;;;;6314706;22;20225;-79
2022/03/02 06:59:51;;;;;;;37.55;15.63;;;1.70;66.30;;;;;;6315903;22;20023;-79
2022/03/02 07:02:41;;;;;;;33.53;14.95;;;1.70;65.60;;;;;;6289307;22;20063;-79
2022/03/02 07:05:09;;;;;;;36.22;16.10;;;1.80;65.50;;;;;;6316201;22;20314;-79
2022/03/02 07:07:36;;;;;;;29.13;15.18;;;1.90;65.60;;;;;;6289128;22;20015;-79
2022/03/02 07:10:02;;;;;;;;;;;2.00;64.90;;;;;;6263988;22;20049;-78
2022/03/02 07:12:28;;;;;;;;;;;2.00;64.70;;;;;;6289401;22;20098;-79
2022/03/02 07:14:54;;;;;;;43.37;15.17;;;2.00;64.30;;;;;;6315978;22;19902;-78
2022/03/02 07:17:21;;;;;;;36.35;15.23;;;2.10;64.40;;;;;;6263933;22;20249;-78
2022/03/02 07:19:47;;;;;;;31.10;14.25;;;2.10;64.10;;;;;;6316289;22;19990;-78
2022/03/02 07:22:16;;;;;;;39.70;17.00;;;2.20;63.80;;;;;;6315954;22;20317;-78
2022/03/02 07:24:58;;;;;;;31.45;15.55;;;2.40;64.20;;;;;;6290261;22;20009;-78
2022/03/02 07:27:26;;;;;;;39.92;16.90;;;2.40;63.60;;;;;;6317355;22;20165;-79
2022/03/02 07:29:53;;;;;;;35.05;17.15;;;2.50;63.60;;;;;;6290172;22;20053;-78
2022/03/02 07:32:26;;;;;;;32.38;14.75;;;2.60;62.40;;;;;;6316185;22;19991;-78
2022/03/02 07:34:57;;;;;;;35.28;16.02;;;2.50;61.80;;;;;;6290241;22;20007;-78
2022/03/02 07:37:23;;;;;;;32.60;14.82;;;2.60;62.40;;;;;;6316204;22;20294;-79
2022/03/02 07:39:49;;;;;;;33.10;15.70;;;2.60;62.10;;;;;;6264415;22;20061;-78
2022/03/02 07:42:15;;;;;;;33.13;15.30;;;2.70;62.00;;;;;;6290096;22;20072;-79
2022/03/02 07:44:44;;;;;;;35.03;16.40;;;2.70;61.60;;;;;;6239164;22;20229;-78
2022/03/02 07:47:10;;;;;;;43.30;17.23;;;2.80;61.60;;;;;;6287942;22;20023;-78
2022/03/02 07:49:36;;;;;;;34.90;16.70;;;2.80;61.30;;;;;;6260440;22;20270;-78
2022/03/02 07:52:05;;;;;;;33.95;16.42;;;2.90;61.40;;;;;;6288291;22;20034;-78
2022/03/02 07:54:35;;;;;;;35.13;15.98;;;3.00;61.20;;;;;;6288693;22;20010;-78
2022/03/02 07:57:02;;;;;;;40.88;17.25;;;3.00;60.70;;;;;;6315380;22;20018;-78
2022/03/02 07:59:37;;;;;;;34.47;15.30;;;3.10;60.80;;;;;;6315664;22;20025;-78
2022/03/02 08:02:08;;;;;;;41.97;17.65;;;3.20;59.90;;;;;;6227143;23;20004;-78
2022/03/02 08:04:36;;;;;;;34.15;16.15;;;3.30;59.50;;;;;;6202369;23;20012;-79
2022/03/02 08:07:02;;;;;;;27.80;14.25;;;3.30;59.10;;;;;;6202605;23;20365;-78
2022/03/02 08:09:31;;;;;;;40.35;16.33;;;3.50;59.10;;;;;;6202305;23;20032;-79
2022/03/02 08:11:58;;;;;;;35.03;16.67;;;3.60;58.90;;;;;;6252951;22;20007;-78
2022/03/02 08:14:25;;;;;;;32.25;15.32;;;3.70;58.70;;;;;;6252786;23;20311;-78
2022/03/02 08:16:54;;;;;;;33.35;15.57;;;3.80;57.40;;;;;;6202703;23;20008;-79
2022/03/02 08:19:22;;;;;;;31.98;16.42;;;3.90;57.60;;;;;;6252790;23;20328;-79
2022/03/02 08:21:57;;;;;;;39.70;19.67;;;4.00;57.10;;;;;;6203444;23;20391;-78
2022/03/02 08:24:29;;;;;;;41.20;20.33;;;4.10;56.50;;;;;;6228399;23;20008;-78
2022/03/02 08:27:00;;;;;;;50.08;24.88;;;4.10;56.10;;;;;;6203499;23;20071;-79
2022/03/02 08:29:29;;;;;;;33.10;15.65;;;4.10;56.10;;;;;;6227805;23;20300;-79
2022/03/02 08:31:58;;;;;;;37.90;16.50;;;4.10;55.70;;;;;;6206519;22;20023;-79
2022/03/02 08:34:25;;;;;;;30.58;14.93;;;4.20;55.70;;;;;;6317134;22;20030;-78
2022/03/02 08:36:54;;;;;;;44.63;21.90;;;4.30;55.50;;;;;;6265883;22;20011;-78
2022/03/02 08:39:20;;;;;;;31.15;15.18;;;4.40;55.50;;;;;;6317057;22;20295;-78
2022/03/02 08:41:46;;;;;;;33.25;15.52;;;4.40;55.00;;;;;;6290557;22;20195;-78
2022/03/02 08:44:12;;;;;;;32.22;15.68;;;4.50;54.90;;;;;;6264770;22;20048;-79
2022/03/02 08:46:39;;;;;;;30.17;14.65;;;4.50;54.70;;;;;;6315675;22;20019;-78
2022/03/02 08:49:05;;;;;;;;;;;4.60;54.70;;;;;;6291331;22;20336;-79
2022/03/02 08:51:33;;;;;;;33.27;14.73;;;4.60;54.00;;;;;;6290616;22;19902;-78
2022/03/02 08:54:01;;;;;;;39.50;15.82;;;4.70;54.80;;;;;;6290469;22;20007;-79
2022/03/02 08:56:27;;;;;;;39.88;16.38;;;4.70;54.80;;;;;;6315966;22;20601;-77
2022/03/02 08:58:54;;;;;;;39.78;15.30;;;4.80;55.10;;;;;;6264727;22;20056;-77
2022/03/02 09:01:20;;;;;;;27.60;14.48;;;4.90;54.70;;;;;;6316183;22;20029;-77
2022/03/02 09:03:51;;;;;;;30.90;14.90;;;5.10;54.80;;;;;;6317024;22;20295;-78
2022/03/02 09:06:20;;;;;;;33.45;15.85;;;5.30;54.20;;;;;;6290036;22;20234;-78
2022/03/02 09:08:46;;;;;;;30.33;15.25;;;5.50;53.40;;;;;;6290072;22;20015;-78
2022/03/02 09:11:12;;;;;;;34.72;14.80;;;5.60;52.80;;;;;;6316606;22;20043;-78
2022/03/02 09:13:39;;;;;;;32.88;14.35;;;5.80;52.80;;;;;;6289337;22;20129;-77
2022/03/02 09:16:06;;;;;;;31.77;13.77;;;6.00;52.70;;;;;;6289469;22;20260;-78
2022/03/02 09:18:32;;;;;;;32.95;14.20;;;6.20;52.00;;;;;;6239133;22;20557;-78
2022/03/02 09:21:04;;;;;;;28.17;14.55;;;6.40;51.50;;;;;;6289637;22;20062;-77
2022/03/02 09:23:34;;;;;;;32.95;14.70;;;6.70;51.10;;;;;;6289535;22;20003;-79
2022/03/02 09:26:13;;;;;;;25.27;13.18;;;6.80;50.40;;;;;;6315280;22;20295;-79
2022/03/02 09:28:41;;;;;;;29.75;12.93;;;6.90;49.30;;;;;;6315499;22;20013;-78
2022/03/02 09:31:10;;;;;;;33.95;13.45;;;7.10;49.30;;;;;;6315424;22;20014;-78
2022/03/02 09:33:37;;;;;;;28.25;12.65;;;7.20;48.60;;;;;;6315012;22;20062;-78
2022/03/02 09:36:09;;;;;;;33.47;13.32;;;7.30;48.60;;;;;;6262783;22;20057;-79
2022/03/02 09:38:37;;;;;;;26.02;12.93;;;7.40;47.80;;;;;;6287615;22;20003;-78
2022/03/02 09:41:35;;;;;;;29.98;14.25;;;7.50;47.20;;;;;;6315860;22;20020;-78
2022/03/02 09:44:04;;;;;;;26.58;12.15;;;7.50;46.30;;;;;;6289403;22;20007;-77
2022/03/02 09:46:38;;;;;;;26.50;12.15;;;7.40;45.50;;;;;;6264266;22;20019;-79
2022/03/02 09:49:13;;;;;;;25.35;13.57;;;7.60;46.20;;;;;;6289450;22;20015;-79
2022/03/02 09:51:41;;;;;;;24.13;12.55;;;7.60;44.90;;;;;;6263981;22;20011;-79
2022/03/02 09:54:08;;;;;;;25.15;12.60;;;7.50;44.90;;;;;;6289759;22;20018;-79
2022/03/02 09:56:37;;;;;;;28.45;14.07;;;7.40;46.20;;;;;;6263744;22;20011;-79
2022/03/02 09:59:06;;;;;;;25.20;13.30;;;7.60;47.10;;;;;;6288216;22;20011;-78
2022/03/02 10:01:33;;;;;;;24.85;13.35;;;7.70;45.90;;;;;;6287838;22;20011;-79
2022/03/02 10:04:13;;;;;;;26.52;13.00;;;7.70;47.10;;;;;;6288230;22;20048;-78
2022/03/02 10:06:42;;;;;;;22.35;12.68;;;7.90;46.40;;;;;;6312698;22;20022;-80
2022/03/02 10:09:11;;;;;;;29.88;13.52;;;8.10;46.40;;;;;;6287972;22;20012;-79
2022/03/02 10:11:41;;;;;;;28.70;13.70;;;8.20;46.90;;;;;;6316039;22;20345;-78
2022/03/02 10:14:07;;;;;;;25.70;14.02;;;8.40;45.90;;;;;;6289382;22;20030;-79
2022/03/02 10:16:40;;;;;;;26.07;13.90;;;8.40;44.70;;;;;;6289429;22;20340;-79
2022/03/02 10:19:09;;;;;;;28.17;14.27;;;8.30;45.80;;;;;;6288208;22;20261;-79
2022/03/02 10:21:41;;;;;;;28.80;13.30;;;8.30;46.10;;;;;;6263531;22;20400;-78
2022/03/02 10:24:13;;;;;;;29.15;14.20;;;8.50;45.80;;;;;;6288697;22;20007;-79
2022/03/02 10:26:55;;;;;;;26.08;13.85;;;8.50;45.70;;;;;;6287929;22;20030;-79
2022/03/02 10:29:40;;;;;;;25.85;13.18;;;8.50;46.10;;;;;;6289089;22;20011;-78
2022/03/02 10:32:15;;;;;;;24.27;13.60;;;8.70;45.80;;;;;;6314848;22;20003;-80
2022/03/02 10:34:51;;;;;;;31.20;14.13;;;8.40;44.80;;;;;;6289135;22;20026;-80
2022/03/02 10:37:20;;;;;;;22.58;13.35;;;8.60;46.70;;;;;;6288490;22;20051;-79
2022/03/02 10:40:17;;;;;;;27.90;13.65;;;8.80;46.00;;;;;;6314750;22;19999;-78
2022/03/02 10:42:45;;;;;;;30.02;13.57;;;8.90;45.20;;;;;;6288599;22;20071;-80
2022/03/02 10:45:15;;;;;;;25.60;13.30;;;8.90;44.90;;;;;;6315224;22;20177;-80
2022/03/02 10:47:46;;;;;;;25.58;13.80;;;9.00;45.30;;;;;;6314772;22;20019;-79
2022/03/02 10:50:13;;;;;;;31.08;14.10;;;9.00;45.10;;;;;;6315119;22;20053;-80
2022/03/02 10:52:40;;;;;;;26.30;14.35;;;9.10;43.70;;;;;;6290446;22;20014;-81
2022/03/02 10:55:11;;;;;;;24.52;13.10;;;8.90;44.50;;;;;;6291411;22;20011;-78
2022/03/02 10:57:37;;;;;;;27.42;14.43;;;9.00;44.70;;;;;;6291190;22;20010;-79
2022/03/02 11:00:09;;;;;;;24.45;12.93;;;9.20;44.80;;;;;;6317202;22;20216;-80
2022/03/02 11:02:40;;;;;;;29.40;14.00;;;9.10;44.30;;;;;;6291102;22;20080;-80
2022/03/02 11:05:10;;;;;;;32.95;15.88;;;9.30;45.00;;;;;;6291210;22;20029;-78
2022/03/02 11:07:36;;;;;;;27.92;13.82;;;9.50;43.80;;;;;;6291165;22;20003;-79
2022/03/02 11:10:04;;;;;;;33.83;15.65;;;9.60;43.20;;;;;;6317123;22;20058;-78
2022/03/02 11:12:30;;;;;;;25.77;13.80;;;9.60;43.10;;;;;;6317412;22;20011;-80
2022/03/02 11:15:03;;;;;;;26.83;14.68;;;9.60;41.50;;;;;;6291224;22;20074;-79
2022/03/02 11:17:29;;;;;;;22.27;10.95;;;9.50;42.40;;;;;;6290990;22;20010;-80
2022/03/02 11:19:57;;;;;;;17.98;10.40;;;9.50;41.10;;;;;;6291311;22;20007;-79
2022/03/02 11:22:25;;;;;;;20.02;10.13;;;9.60;40.40;;;;;;6317000;22;20015;-80
2022/03/02 11:24:57;;;;;;;22.48;10.68;;;9.50;39.20;;;;;;6291288;22;20007;-79
2022/03/02 11:27:27;;;;;;;19.23;9.23;;;9.40;38.80;;;;;;6291239;22;20101;-79
2022/03/02 11:30:06;;;;;;;19.23;9.82;;;9.50;37.80;;;;;;6316754;22;20006;-80
2022/03/02 11:32:34;;;;;;;19.75;10.48;;;9.50;37.00;;;;;;6290642;22;20018;-79
2022/03/02 11:35:02;;;;;;;23.90;10.57;;;9.30;36.80;;;;;;6290943;22;20010;-80
2022/03/02 11:37:31;;;;;;;20.55;9.50;;;9.50;39.40;;;;;;6316828;22;19999;-81
2022/03/02 11:39:57;;;;;;;18.90;9.05;;;9.70;38.00;;;;;;6290998;22;20291;-81
2022/03/02 11:42:31;;;;;;;20.02;9.45;;;9.60;36.00;;;;;;6290877;22;20015;-79
2022/03/02 11:44:59;;;;;;;17.02;9.25;;;9.70;36.30;;;;;;6291261;22;20222;-79
2022/03/02 11:47:41;;;;;;;15.68;8.95;;;9.70;36.80;;;;;;6290513;22;20023;-80
2022/03/02 11:50:11;;;;;;;18.05;9.88;;;9.80;36.20;;;;;;6290876;22;20017;-79
2022/03/02 11:52:44;;;;;;;20.17;9.55;;;9.80;37.00;;;;;;6291072;22;20008;-79
2022/03/02 11:55:13;;;;;;;15.05;8.40;;;9.80;36.70;;;;;;6290638;22;20065;-79
2022/03/02 11:57:50;;;;;;;15.80;9.10;;;9.80;36.60;;;;;;6290707;22;20241;-79
2022/03/02 12:00:25;;;;;;;18.90;8.95;;;9.90;36.10;;;;;;6316660;22;20003;-78
2022/03/02 12:03:02;;;;;;;18.30;10.35;;;10.00;37.00;;;;;;6290670;22;20295;-79
2022/03/02 12:05:31;;;;;;;18.00;9.40;;;9.90;35.90;;;;;;6290739;22;20301;-79
2022/03/02 12:08:06;;;;;;;23.50;10.43;;;9.90;36.70;;;;;;6316447;22;20029;-80
2022/03/02 12:10:37;;;;;;;18.23;7.65;;;10.00;35.20;;;;;;6290797;22;20007;-80
2022/03/02 12:13:04;;;;;;;17.67;8.98;;;9.90;34.30;;;;;;6290674;22;20241;-80
2022/03/02 12:15:48;;;;;;;20.65;8.75;;;9.70;34.70;;;;;;6290414;22;20066;-80
2022/03/02 12:18:15;;;;;;;14.52;8.18;;;9.60;35.20;;;;;;6290469;22;20004;-80
2022/03/02 12:20:53;;;;;;;18.35;8.95;;;9.60;34.70;;;;;;6290568;22;20015;-79
2022/03/02 12:23:27;;;;;;;15.52;7.70;;;9.60;35.70;;;;;;6316426;22;20019;-79
2022/03/02 12:25:54;;;;;;;14.07;7.00;;;9.70;35.80;;;;;;6290607;22;20011;-80
2022/03/02 12:28:22;;;;;;;15.77;8.32;;;9.80;34.20;;;;;;6290592;22;20002;-80
2022/03/02 12:30:47;;;;;;;15.77;8.05;;;9.80;34.60;;;;;;6290651;22;20202;-80
2022/03/02 12:33:17;;;;;;;15.80;8.38;;;9.80;34.60;;;;;;6316133;22;20011;-80
2022/03/02 12:35:44;;;;;;;15.05;8.43;;;9.70;34.30;;;;;;6290408;22;20019;-79
2022/03/02 12:38:10;;;;;;;14.90;7.93;;;9.60;34.90;;;;;;6290479;22;20014;-79
2022/03/02 12:40:41;;;;;;;15.40;8.27;;;9.70;33.80;;;;;;6315929;22;20058;-79
2022/03/02 12:43:13;;;;;;;13.55;7.43;;;9.80;34.80;;;;;;6316022;22;20017;-79
2022/03/02 12:45:42;;;;;;;21.83;8.25;;;9.80;33.00;;;;;;6317102;22;20003;-79
2022/03/02 12:48:08;;;;;;;11.82;6.60;;;9.70;33.40;;;;;;6290129;22;20014;-79
2022/03/02 12:50:35;;;;;;;13.68;7.97;;;9.60;32.40;;;;;;6264676;22;20037;-80
2022/03/02 12:53:02;;;;;;;19.83;7.93;;;9.80;34.00;;;;;;6315875;22;20014;-80
2022/03/02 12:55:28;;;;;;;15.90;6.47;;;9.80;33.40;;;;;;6290194;22;20015;-80
2022/03/02 12:57:54;;;;;;;17.83;7.23;;;9.80;33.20;;;;;;6290285;22;20291;-79
2022/03/02 13:00:22;;;;;;;11.02;5.97;;;9.80;32.50;;;;;;6290331;22;20052;-80
2022/03/02 13:02:50;;;;;;;12.15;6.47;;;9.80;31.40;;;;;;6315467;22;19999;-80
2022/03/02 13:05:24;;;;;;;13.43;6.82;;;9.90;32.90;;;;;;6289724;22;20011;-80
2022/03/02 13:08:23;;;;;;;14.07;7.10;;;10.00;32.40;;;;;;6315547;22;20298;-80
2022/03/02 13:10:49;;;;;;;13.48;7.15;;;10.10;33.30;;;;;;6289715;22;20069;-80
2022/03/02 13:13:31;;;;;;;14.70;6.90;;;10.00;32.60;;;;;;6314804;22;20010;-80
2022/03/02 13:16:18;;;;;;;11.27;5.93;;;10.00;33.10;;;;;;6289156;22;20071;-79
2022/03/02 13:18:44;;;;;;;14.30;6.32;;;10.10;32.30;;;;;;6315124;22;20230;-80
2022/03/02 13:21:28;;;;;;;17.05;6.28;;;10.00;31.50;;;;;;6289737;22;20291;-81
2022/03/02 13:24:12;;;;;;;14.13;5.85;;;9.90;32.70;;;;;;6289942;22;20007;-80
2022/03/02 13:26:58;;;;;;;11.98;6.78;;;9.90;32.00;;;;;;6290198;22;20210;-80
2022/03/02 13:29:28;;;;;;;15.82;6.85;;;9.80;31.90;;;;;;6315760;22;20003;-80
2022/03/02 13:32:02;;;;;;;14.30;6.70;;;9.70;32.80;;;;;;6315772;22;20019;-80
2022/03/02 13:34:34;;;;;;;14.95;6.35;;;9.80;32.90;;;;;;6290674;22;20014;-81
2022/03/02 13:37:02;;;;;;;12.52;6.70;;;9.70;33.30;;;;;;6290134;22;20007;-81
2022/03/02 13:39:30;;;;;;;16.33;8.60;;;9.60;33.70;;;;;;6289709;22;19999;-79
2022/03/02 13:42:02;;;;;;;12.57;6.80;;;9.60;34.10;;;;;;6289717;22;20003;-81
2022/03/02 13:44:35;;;;;;;14.32;7.60;;;9.80;34.20;;;;;;6290154;22;20313;-79
2022/03/02 13:47:07;;;;;;;20.00;7.03;;;9.80;33.80;;;;;;6289299;22;20074;-79
2022/03/02 13:49:53;;;;;;;16.55;7.15;;;9.90;33.90;;;;;;6315324;22;20061;-79
2022/03/02 13:52:20;;;;;;;18.15;7.38;;;9.90;33.80;;;;;;6290073;22;20010;-80
2022/03/02 13:54:48;;;;;;;12.48;7.63;;;9.80;33.50;;;;;;6315198;22;20028;-80
2022/03/02 13:57:28;;;;;;;12.50;7.22;;;9.70;34.00;;;;;;6315620;22;20349;-80
2022/03/02 14:00:13;;;;;;;19.27;6.90;;;9.80;33.70;;;;;;6322101;22;20011;-79
2022/03/02 14:02:40;;;;;;;15.05;7.70;;;9.80;33.70;;;;;;6326786;22;19999;-79
2022/03/02 14:05:06;;;;;;;15.25;7.55;;;9.90;34.20;;;;;;6292326;22;20032;-79
2022/03/02 14:07:35;;;;;;;12.80;6.82;;;10.00;34.10;;;;;;6318601;22;20317;-78
2022/03/02 14:10:03;;;;;;;16.88;7.57;;;10.00;34.20;;;;;;6292620;22;20203;-80
2022/03/02 14:12:29;;;;;;;14.73;7.78;;;9.90;34.20;;;;;;6292215;22;20027;-80
2022/03/02 14:15:11;;;;;;;18.42;7.80;;;9.90;34.40;;;;;;6291379;22;20014;-79
2022/03/02 14:17:37;;;;;;;17.20;8.00;;;10.00;34.10;;;;;;6316405;22;20029;-79
2022/03/02 14:20:04;;;;;;;21.23;7.57;;;9.90;34.60;;;;;;6288322;22;20015;-79
2022/03/02 14:22:30;;;;;;;16.30;8.13;;;9.90;34.40;;;;;;6288441;22;20394;-79
2022/03/02 14:24:56;;;;;;;18.33;7.75;;;9.90;34.50;;;;;;6288279;22;20015;-78
2022/03/02 14:27:27;;;;;;;14.73;7.65;;;9.90;35.10;;;;;;6262372;22;20023;-78
2022/03/02 14:30:08;;;;;;;14.57;7.72;;;9.90;35.20;;;;;;6288868;22;20443;-79
2022/03/02 14:32:40;;;;;;;15.25;7.47;;;9.90;35.10;;;;;;6316219;22;19999;-79
2022/03/02 14:35:09;;;;;;;22.25;8.20;;;9.90;35.30;;;;;;6314588;22;20330;-79
2022/03/02 14:37:41;;;;;;;14.32;8.02;;;9.70;35.40;;;;;;6316285;22;20009;-79
2022/03/02 14:40:19;;;;;;;17.15;8.57;;;9.60;35.70;;;;;;6316257;22;20003;-79
2022/03/02 14:43:00;;;;;;;14.15;8.02;;;9.70;36.00;;;;;;6315689;22;20019;-79
2022/03/02 14:45:34;;;;;;;16.27;8.52;;;9.80;36.50;;;;;;6288061;22;20299;-79
2022/03/02 14:48:13;;;;;;;14.65;7.30;;;9.90;35.90;;;;;;6288584;22;20326;-79
2022/03/02 14:50:43;;;;;;;17.85;8.10;;;9.80;36.20;;;;;;6288593;22;20003;-79
2022/03/02 14:53:16;;;;;;;13.52;7.85;;;9.80;36.40;;;;;;6288954;22;20011;-80
2022/03/02 14:55:58;;;;;;;15.18;7.95;;;9.90;35.40;;;;;;6287939;22;20068;-79
2022/03/02 14:58:25;;;;;;;16.90;8.95;;;9.90;35.60;;;;;;6288270;22;20266;-79
2022/03/02 15:01:01;;;;;;;15.90;7.75;;;9.80;35.20;;;;;;6314657;22;19987;-79
2022/03/02 15:03:31;;;;;;;17.40;8.07;;;9.80;35.50;;;;;;6288857;22;20199;-80
2022/03/02 15:06:08;;;;;;;20.52;9.90;;;9.70;35.70;;;;;;6288584;22;20285;-79
2022/03/02 15:08:46;;;;;;;13.95;7.95;;;9.70;35.40;;;;;;6288674;22;20238;-79
2022/03/02 15:11:17;;;;;;;21.08;8.98;;;9.70;35.90;;;;;;6314680;22;20291;-80
2022/03/02 15:16:43;;;;;;;15.30;7.90;;;9.70;36.00;;;;;;6314686;22;20010;-80
2022/03/02 15:19:10;;;;;;;16.15;7.35;;;9.80;36.00;;;;;;6289330;22;20007;-80
2022/03/02 15:21:37;;;;;;;15.30;7.72;;;9.90;35.40;;;;;;6264172;22;20191;-79
2022/03/02 15:24:03;;;;;;;14.80;8.30;;;9.90;34.80;;;;;;6289671;22;20007;-80
2022/03/02 15:26:29;;;;;;;13.57;7.50;;;9.80;35.40;;;;;;6294964;22;20011;-80
2022/03/02 15:29:11;;;;;;;21.83;8.30;;;9.70;35.80;;;;;;6294276;22;20029;-80
2022/03/02 15:31:55;;;;;;;18.85;8.75;;;9.80;35.80;;;;;;6321060;22;20050;-79
2022/03/02 15:34:23;;;;;;;13.93;8.02;;;9.80;36.00;;;;;;6316900;22;20022;-81
2022/03/02 15:36:53;;;;;;;15.88;8.02;;;9.90;35.40;;;;;;6316280;22;20207;-80
2022/03/02 15:39:37;;;;;;;16.80;8.90;;;9.80;35.50;;;;;;6290049;22;20066;-80
2022/03/02 15:42:05;;;;;;;21.02;9.93;;;9.90;35.50;;;;;;6290475;22;20037;-80
2022/03/02 15:44:32;;;;;;;17.10;8.68;;;9.90;35.00;;;;;;6316459;22;20005;-80
2022/03/02 15:47:00;;;;;;;16.15;9.23;;;9.90;35.20;;;;;;6315935;22;20390;-80
2022/03/02 15:49:48;;;;;;;17.30;8.20;;;10.00;35.10;;;;;;6316374;22;20167;-80
2022/03/02 15:52:14;;;;;;;14.75;8.18;;;10.00;34.80;;;;;;6316735;22;20015;-80
2022/03/02 15:54:55;;;;;;;16.13;8.65;;;10.00;35.10;;;;;;6316029;22;20241;-79
2022/03/02 15:57:23;;;;;;;17.08;8.70;;;10.00;34.60;;;;;;6315961;22;20014;-79
2022/03/02 15:59:50;;;;;;;19.25;7.97;;;9.80;34.90;;;;;;6289874;22;19995;-81
2022/03/02 16:02:29;;;;;;;22.52;8.80;;;9.50;35.30;;;;;;6290041;22;20023;-80
2022/03/02 16:05:00;;;;;;;17.83;8.48;;;9.20;35.80;;;;;;6314147;22;20003;-80
2022/03/02 16:07:27;;;;;;;21.05;7.78;;;8.90;35.70;;;;;;6289451;22;20003;-80
2022/03/02 16:09:55;;;;;;;24.33;9.25;;;8.70;36.30;;;;;;6262635;22;19995;-80
2022/03/02 16:12:44;;;;;;;14.93;7.70;;;8.50;36.40;;;;;;6263705;22;20007;-80
2022/03/02 16:15:12;;;;;;;15.45;8.52;;;8.50;36.90;;;;;;6263744;22;20015;-79
2022/03/02 16:17:46;;;;;;;16.10;9.25;;;8.40;37.00;;;;;;6263974;22;20078;-79
2022/03/02 16:20:22;;;;;;;16.35;8.63;;;8.30;37.20;;;;;;6289398;22;20114;-80
2022/03/02 16:23:10;;;;;;;27.70;8.90;;;8.20;37.50;;;;;;6264112;22;20015;-80
2022/03/02 16:25:48;;;;;;;20.20;9.27;;;8.20;37.90;;;;;;6289415;22;20038;-80
2022/03/02 16:28:14;;;;;;;18.15;8.25;;;8.10;38.20;;;;;;6289417;22;20330;-80
2022/03/02 16:30:41;;;;;;;23.83;8.48;;;7.90;38.40;;;;;;6263816;22;20268;-80
2022/03/02 16:33:09;;;;;;;17.58;9.48;;;7.80;38.60;;;;;;6263050;22;20078;-80
2022/03/02 16:35:38;;;;;;;18.00;9.25;;;7.80;39.00;;;;;;6270544;22;20011;-79
2022/03/02 16:38:05;;;;;;;16.67;8.65;;;7.70;39.10;;;;;;6289686;22;20003;-80
2022/03/02 16:40:32;;;;;;;19.10;9.07;;;7.60;39.20;;;;;;6289260;22;20007;-80
2022/03/02 16:42:59;;;;;;;24.75;11.15;;;7.50;39.40;;;;;;6288982;22;20074;-79
2022/03/02 16:45:27;;;;;;;19.15;9.05;;;7.40;39.40;;;;;;6289362;22;20210;-79